Time;durP1;ratioP1;P1;durP2;ratioP2;P2;SDS_P1;SDS_P2;PMS_P1;PMS_P2;Temp;Humidity;BMP_temperature;BMP_pressure;BME280_temperature;BME280_humidity;BME280_pressure;Samples;Min_cycle;Max_cycle;Signal;HPM_P1;HPM_P2
2022/03/17 00:00:52;;;;;;;;;;;;;;;;;;12530762;28;20420;-78
2022/03/17 00:06:54;;;;;;;32.03;25.33;;;;;;;;;;12544156;28;20064;-77
2022/03/17 00:12:55;;;;;;;37.20;30.13;;;;;;;;;;12543916;28;20052;-78
2022/03/17 00:18:57;;;;;;;30.90;25.80;;;;;;;;;;12526378;28;20053;-78
2022/03/17 00:24:59;;;;;;;31.83;28.27;;;;;;;;;;12543393;28;20041;-78
2022/03/17 00:31:01;;;;;;;34.63;27.65;;;;;;;;;;12542521;28;20037;-81
2022/03/17 00:37:03;;;;;;;33.53;27.83;;;;;;;;;;12549172;28;20044;-81
2022/03/17 00:43:06;;;;;;;30.02;25.40;;;;;;;;;;12552668;28;20052;-81
2022/03/17 00:49:08;;;;;;;28.67;23.60;;;;;;;;;;12534854;28;20037;-81
2022/03/17 00:55:09;;;;;;;32.60;24.97;;;;;;;;;;12534521;28;20393;-82
2022/03/17 01:01:11;;;;;;;31.17;26.45;;;;;;;;;;12550824;28;20370;-81
2022/03/17 01:07:13;;;;;;;22.23;18.27;;;;;;;;;;12551400;28;20158;-81
2022/03/17 01:13:15;;;;;;;28.85;24.42;;;;;;;;;;12551877;28;20033;-82
2022/03/17 01:19:19;;;;;;;32.40;26.90;;;;;;;;;;12550594;28;20053;-81
2022/03/17 01:25:20;;;;;;;27.05;24.17;;;;;;;;;;12551757;28;20041;-82
2022/03/17 01:31:23;;;;;;;34.15;30.45;;;;;;;;;;12551000;28;20037;-77
2022/03/17 01:37:25;;;;;;;36.20;29.10;;;;;;;;;;12532743;28;20040;-78
2022/03/17 01:43:27;;;;;;;30.90;26.90;;;;;;;;;;12533359;28;20484;-78
2022/03/17 01:49:28;;;;;;;37.30;31.85;;;;;;;;;;12562612;28;20040;-81
2022/03/17 01:55:30;;;;;;;37.65;33.08;;;;;;;;;;12548583;28;20036;-81
2022/03/17 02:01:32;;;;;;;22.97;20.20;;;;;;;;;;12549484;28;20044;-78
2022/03/17 02:07:34;;;;;;;36.65;30.67;;;;;;;;;;12531128;28;20044;-77
2022/03/17 02:13:36;;;;;;;39.42;35.10;;;;;;;;;;12549715;28;20040;-78
2022/03/17 02:19:37;;;;;;;42.90;35.90;;;;;;;;;;12558874;28;20393;-78
2022/03/17 02:25:39;;;;;;;38.15;33.20;;;;;;;;;;12546974;28;20036;-77
2022/03/17 02:31:41;;;;;;;40.60;33.83;;;;;;;;;;12546776;28;20029;-78
2022/03/17 02:37:42;;;;;;;33.47;29.25;;;;;;;;;;12547150;28;20036;-78
2022/03/17 02:43:45;;;;;;;38.85;34.40;;;;;;;;;;12557917;28;20048;-77
2022/03/17 02:49:47;;;;;;;;;;;;;;;;;;12547338;28;20025;-77
2022/03/17 02:55:49;;;;;;;34.55;30.27;;;;;;;;;;12545653;28;19916;-77
2022/03/17 03:01:51;;;;;;;35.85;30.90;;;;;;;;;;12546085;28;20040;-81
2022/03/17 03:07:53;;;;;;;38.83;30.75;;;;;;;;;;12546171;28;20041;-81
2022/03/17 03:13:55;;;;;;;36.50;30.10;;;;;;;;;;12547015;28;20052;-81
2022/03/17 03:19:57;;;;;;;42.15;32.53;;;;;;;;;;12548735;28;20037;-81
2022/03/17 03:25:59;;;;;;;44.03;34.05;;;;;;;;;;12544443;28;20059;-81
2022/03/17 03:32:03;;;;;;;49.10;38.95;;;;;;;;;;12544598;28;20500;-81
2022/03/17 03:38:05;;;;;;;45.63;35.28;;;;;;;;;;12528142;28;20056;-81
2022/03/17 03:44:08;;;;;;;44.45;35.00;;;;;;;;;;12554017;28;20397;-81
2022/03/17 03:50:10;;;;;;;42.13;35.88;;;;;;;;;;12544628;28;20033;-81
2022/03/17 03:56:12;;;;;;;55.42;45.45;;;;;;;;;;12548309;28;20033;-78
2022/03/17 04:02:14;;;;;;;51.15;42.33;;;;;;;;;;12544234;28;20035;-81
2022/03/17 04:08:15;;;;;;;45.10;37.60;;;;;;;;;;12543249;28;20067;-82
2022/03/17 04:14:17;;;;;;;44.05;37.42;;;;;;;;;;12565716;28;20060;-82
2022/03/17 04:20:19;;;;;;;47.38;39.42;;;;;;;;;;12552600;28;20047;-81
2022/03/17 04:26:21;;;;;;;43.95;34.88;;;;;;;;;;12553844;28;20547;-78
2022/03/17 04:32:23;;;;;;;40.03;31.67;;;;;;;;;;12536049;28;20393;-77
2022/03/17 04:38:25;;;;;;;39.88;30.17;;;;;;;;;;12553207;28;20032;-78
2022/03/17 04:44:27;;;;;;;39.63;30.33;;;;;;;;;;12552699;28;20163;-78
2022/03/17 04:50:28;;;;;;;42.63;33.97;;;;;;;;;;12551162;28;20033;-78
2022/03/17 04:56:30;;;;;;;38.92;30.77;;;;;;;;;;12554445;28;20033;-82
2022/03/17 05:02:32;;;;;;;42.73;33.90;;;;;;;;;;12550844;28;20033;-78
2022/03/17 05:08:35;;;;;;;41.75;32.38;;;;;;;;;;12551664;28;20044;-78
2022/03/17 05:14:36;;;;;;;40.65;31.48;;;;;;;;;;12551750;28;20061;-78
2022/03/17 05:20:40;;;;;;;36.80;29.17;;;;;;;;;;12550850;28;20393;-78
2022/03/17 05:26:42;;;;;;;43.60;32.70;;;;;;;;;;12556620;28;20420;-77
2022/03/17 05:32:44;;;;;;;37.35;29.38;;;;;;;;;;12553067;28;20378;-82
2022/03/17 05:38:46;;;;;;;42.80;34.13;;;;;;;;;;12553916;28;20052;-81
2022/03/17 05:44:48;;;;;;;55.42;41.97;;;;;;;;;;12550271;28;20299;-81
2022/03/17 05:50:50;;;;;;;45.40;35.15;;;;;;;;;;12550279;28;20394;-81
2022/03/17 05:56:51;;;;;;;45.13;33.57;;;;;;;;;;12549935;28;20067;-81
2022/03/17 06:02:53;;;;;;;42.60;31.65;;;;;;;;;;12557023;28;20037;-81
2022/03/17 06:08:55;;;;;;;34.83;26.42;;;;;;;;;;12559511;28;20055;-81
2022/03/17 06:14:57;;;;;;;32.40;26.63;;;;;;;;;;12549115;28;20049;-82
2022/03/17 06:20:59;;;;;;;33.03;25.93;;;;;;;;;;12547029;28;20405;-81
2022/03/17 06:27:01;;;;;;;34.63;28.27;;;;;;;;;;12547041;28;20044;-81
2022/03/17 06:33:04;;;;;;;34.63;26.40;;;;;;;;;;12544119;28;20071;-80
2022/03/17 06:39:05;;;;;;;26.20;21.33;;;;;;;;;;12520946;28;20029;-79
2022/03/17 06:45:07;;;;;;;30.95;23.65;;;;;;;;;;12519752;28;20513;-80
2022/03/17 06:51:09;;;;;;;28.10;23.08;;;;;;;;;;12526713;28;20025;-78
2022/03/17 06:57:11;;;;;;;26.95;22.00;;;;;;;;;;12510607;28;20033;-79
2022/03/17 07:03:12;;;;;;;26.55;20.92;;;;;;;;;;12515365;28;20056;-79
2022/03/17 07:09:14;;;;;;;22.73;17.23;;;;;;;;;;12526463;28;20489;-79
2022/03/17 07:15:16;;;;;;;19.77;14.48;;;;;;;;;;12515468;28;20057;-81
2022/03/17 07:21:18;;;;;;;17.00;14.52;;;;;;;;;;12494928;28;20034;-79
2022/03/17 07:27:24;;;;;;;;;;;;;;;;;;12502128;28;20037;-79
2022/03/17 07:33:25;;;;;;;18.25;15.13;;;;;;;;;;12509775;28;19909;-78
2022/03/17 07:39:27;;;;;;;21.88;15.95;;;;;;;;;;12512076;28;20037;-78
2022/03/17 07:45:28;;;;;;;15.10;12.45;;;;;;;;;;12506795;28;20099;-78
2022/03/17 07:51:37;;;;;;;18.05;14.68;;;;;;;;;;12507825;28;20037;-78
2022/03/17 07:57:39;;;;;;;20.95;16.33;;;;;;;;;;12532359;28;20520;-79
2022/03/17 08:03:41;;;;;;;18.98;15.45;;;;;;;;;;12515878;28;20424;-79
2022/03/17 08:09:43;;;;;;;16.10;13.73;;;;;;;;;;12517801;28;20044;-81
2022/03/17 08:15:45;;;;;;;16.40;13.00;;;;;;;;;;12518577;28;20061;-84
2022/03/17 08:21:47;;;;;;;12.38;11.07;;;;;;;;;;12503034;28;20029;-78
2022/03/17 08:27:52;;;;;;;12.73;10.63;;;;;;;;;;12522318;28;20478;-78
2022/03/17 08:33:56;;;;;;;15.38;11.73;;;;;;;;;;12510404;28;20037;-79
2022/03/17 08:39:58;;;;;;;12.50;11.20;;;;;;;;;;12505497;28;20040;-80
2022/03/17 08:52:20;;;;;;;14.00;12.50;;;;;;;;;;12517244;28;20049;-81
2022/03/17 08:58:23;;;;;;;13.52;12.13;;;;;;;;;;12513641;28;20524;-80
2022/03/17 09:04:24;;;;;;;16.17;13.13;;;;;;;;;;12499420;28;20039;-79
2022/03/17 09:10:27;;;;;;;13.95;12.52;;;;;;;;;;12516246;28;20030;-80
2022/03/17 09:16:29;;;;;;;19.20;17.20;;;;;;;;;;12509681;28;20048;-80
2022/03/17 09:22:31;;;;;;;15.43;13.77;;;;;;;;;;12509518;28;20048;-80
2022/03/17 09:28:33;;;;;;;12.23;10.93;;;;;;;;;;12520549;28;20041;-77
2022/03/17 09:34:35;;;;;;;11.87;10.60;;;;;;;;;;12517833;28;20389;-79
2022/03/17 09:40:38;;;;;;;15.52;12.25;;;;;;;;;;12530796;28;20029;-78
2022/03/17 09:46:42;;;;;;;14.88;12.90;;;;;;;;;;12527803;28;20053;-78
2022/03/17 09:52:47;;;;;;;14.43;9.85;;;;;;;;;;12518173;28;20021;-77
2022/03/17 09:58:48;;;;;;;9.82;8.80;;;;;;;;;;12519380;28;20147;-78
2022/03/17 10:04:51;;;;;;;13.82;12.38;;;;;;;;;;12540593;28;20060;-78
2022/03/17 10:10:52;;;;;;;11.00;9.90;;;;;;;;;;12519703;28;20033;-78
2022/03/17 10:16:54;;;;;;;13.23;12.00;;;;;;;;;;12510786;28;20312;-77
2022/03/17 10:22:57;;;;;;;11.63;9.57;;;;;;;;;;12523737;28;20036;-80
2022/03/17 10:29:06;;;;;;;10.30;9.23;;;;;;;;;;12506324;28;20037;-80
2022/03/17 10:35:10;;;;;;;8.52;7.72;;;;;;;;;;12511228;28;20421;-80
2022/03/17 10:41:12;;;;;;;9.43;7.40;;;;;;;;;;12512954;28;20082;-80
2022/03/17 10:47:14;;;;;;;9.43;8.53;;;;;;;;;;12519074;28;20041;-80
2022/03/17 10:53:16;;;;;;;13.77;12.38;;;;;;;;;;12512928;28;20401;-80
2022/03/17 10:59:20;;;;;;;13.52;11.38;;;;;;;;;;12511523;28;20036;-76
2022/03/17 11:05:22;;;;;;;12.50;10.60;;;;;;;;;;12507517;28;20040;-78
2022/03/17 11:11:24;;;;;;;13.52;12.20;;;;;;;;;;12514827;28;20029;-78
2022/03/17 11:17:29;;;;;;;10.17;9.23;;;;;;;;;;12512960;28;20060;-80
2022/03/17 11:23:35;;;;;;;7.65;6.93;;;;;;;;;;12508071;28;20032;-80
2022/03/17 11:29:47;;;;;;;9.10;8.20;;;;;;;;;;12504757;28;20111;-80
2022/03/17 11:35:59;;;;;;;9.75;8.20;;;;;;;;;;12530541;28;20041;-80
2022/03/17 11:42:21;;;;;;;8.52;7.70;;;;;;;;;;12516230;28;20029;-80
2022/03/17 11:48:35;;;;;;;10.95;9.90;;;;;;;;;;12506312;28;20036;-79
2022/03/17 11:54:37;;;;;;;11.73;10.43;;;;;;;;;;12509115;28;20390;-80
2022/03/17 12:00:45;;;;;;;11.55;10.35;;;;;;;;;;12499282;28;20025;-78
2022/03/17 12:06:53;;;;;;;11.35;10.25;;;;;;;;;;12506733;28;20056;-79
2022/03/17 12:12:55;;;;;;;11.55;10.45;;;;;;;;;;12513392;28;20048;-79
2022/03/17 12:19:02;;;;;;;17.13;10.90;;;;;;;;;;12505752;28;20051;-80
2022/03/17 12:25:23;;;;;;;7.65;6.78;;;;;;;;;;12520110;28;20056;-79
2022/03/17 12:31:25;;;;;;;18.30;8.43;;;;;;;;;;12520815;28;20029;-81
2022/03/17 12:37:28;;;;;;;10.47;9.10;;;;;;;;;;12521541;28;20492;-79
2022/03/17 12:43:34;;;;;;;10.60;9.50;;;;;;;;;;12527184;28;20033;-80
2022/03/17 12:49:36;;;;;;;17.85;14.30;;;;;;;;;;12512346;28;20048;-79
2022/03/17 12:55:38;;;;;;;15.07;11.90;;;;;;;;;;12527943;28;20040;-81
2022/03/17 13:01:43;;;;;;;11.25;10.02;;;;;;;;;;12538883;28;20032;-81
2022/03/17 13:07:45;;;;;;;10.85;9.40;;;;;;;;;;12512776;28;20056;-82
2022/03/17 13:14:30;;;;;;;9.23;8.32;;;;;;;;;;12532782;28;20040;-81
2022/03/17 13:20:15;;;;;;;6.72;6.03;;;;;;;;;;12518546;28;20056;-81
2022/03/17 13:26:21;;;;;;;9.13;8.20;;;;;;;;;;12508756;28;20404;-81
2022/03/17 13:32:24;;;;;;;7.95;7.13;;;;;;;;;;12520849;28;20028;-80
2022/03/17 13:38:32;;;;;;;10.10;9.10;;;;;;;;;;12525430;28;20056;-80
2022/03/17 13:44:46;;;;;;;9.18;8.25;;;;;;;;;;12509415;28;20473;-81
2022/03/17 13:50:52;;;;;;;7.63;6.70;;;;;;;;;;12516254;28;20028;-81
2022/03/17 13:57:00;;;;;;;8.50;7.70;;;;;;;;;;12512597;28;20037;-80
2022/03/17 14:03:15;;;;;;;9.57;8.68;;;;;;;;;;12513383;28;20048;-80
2022/03/17 14:09:19;;;;;;;9.95;9.05;;;;;;;;;;12526825;28;20478;-81
2022/03/17 14:15:21;;;;;;;9.50;7.72;;;;;;;;;;12515305;28;20410;-81
2022/03/17 14:21:24;;;;;;;7.20;6.50;;;;;;;;;;12512908;28;20036;-79
2022/03/17 14:27:26;;;;;;;6.63;6.03;;;;;;;;;;12508606;28;20052;-81
2022/03/17 14:33:28;;;;;;;7.65;6.82;;;;;;;;;;12533056;28;20585;-81
2022/03/17 14:39:30;;;;;;;7.10;6.50;;;;;;;;;;12514785;28;20025;-80
2022/03/17 14:45:32;;;;;;;6.03;5.40;;;;;;;;;;12490853;28;20038;-79
2022/03/17 14:51:34;;;;;;;5.17;4.67;;;;;;;;;;12514697;28;20034;-78
2022/03/17 14:57:36;;;;;;;;;;;;;;;;;;12501834;28;20033;-76
2022/03/17 15:03:45;;;;;;;9.10;8.23;;;;;;;;;;12479688;28;20004;-77
2022/03/17 15:09:46;;;;;;;10.70;9.30;;;;;;;;;;12520012;28;20048;-76
2022/03/17 15:15:48;;;;;;;10.53;8.90;;;;;;;;;;12516697;28;20049;-79
2022/03/17 15:21:50;;;;;;;10.13;9.03;;;;;;;;;;12522229;28;20034;-77
2022/03/17 15:34:13;;;;;;;9.65;8.65;;;;;;;;;;12502274;28;20041;-77
2022/03/17 15:40:16;;;;;;;9.27;7.38;;;;;;;;;;12493884;28;20030;-78
2022/03/17 15:46:19;;;;;;;8.20;7.40;;;;;;;;;;12495796;28;20474;-78
2022/03/17 15:52:21;;;;;;;7.70;7.00;;;;;;;;;;12477114;28;20030;-77
2022/03/17 15:58:22;;;;;;;15.03;9.63;;;;;;;;;;12492519;28;20033;-78
2022/03/17 16:04:24;;;;;;;7.85;6.90;;;;;;;;;;12491758;28;20060;-77
2022/03/17 16:16:46;;;;;;;7.28;6.53;;;;;;;;;;12494410;28;20083;-77
2022/03/17 16:22:48;;;;;;;8.60;7.03;;;;;;;;;;12499219;28;20032;-77
2022/03/17 16:28:50;;;;;;;6.63;6.03;;;;;;;;;;12492778;28;20037;-77
2022/03/17 16:34:52;;;;;;;5.07;4.57;;;;;;;;;;12493871;28;20310;-77
2022/03/17 16:40:54;;;;;;;8.15;6.78;;;;;;;;;;12493734;28;20041;-77
2022/03/17 16:46:57;;;;;;;8.93;7.25;;;;;;;;;;12494821;28;20045;-76
2022/03/17 16:52:59;;;;;;;8.68;7.68;;;;;;;;;;12492070;28;20036;-77
2022/03/17 16:59:01;;;;;;;7.63;6.07;;;;;;;;;;12493447;28;20040;-77
2022/03/17 17:05:02;;;;;;;6.85;6.22;;;;;;;;;;12487122;28;20049;-76
2022/03/17 17:11:04;;;;;;;8.57;6.93;;;;;;;;;;12491700;28;20445;-76
2022/03/17 17:17:07;;;;;;;6.87;6.17;;;;;;;;;;12496003;28;20061;-77
2022/03/17 17:35:52;;;;;;;9.27;7.15;;;;;;;;;;12501005;28;20034;-77
2022/03/17 17:41:54;;;;;;;;;;;;;;;;;;12512173;28;20038;-77
2022/03/17 17:47:58;;;;;;;9.43;6.75;;;;;;;;;;12499700;28;19921;-77
2022/03/17 17:54:00;;;;;;;8.05;6.50;;;;;;;;;;12505020;28;20105;-77
2022/03/17 18:00:09;;;;;;;7.45;6.75;;;;;;;;;;12513910;28;20040;-76
2022/03/17 18:06:14;;;;;;;9.60;6.43;;;;;;;;;;12503673;28;20050;-76
2022/03/17 18:12:16;;;;;;;11.57;10.18;;;;;;;;;;12498392;28;20033;-77
2022/03/17 18:18:18;;;;;;;12.70;9.82;;;;;;;;;;12500275;28;20522;-78
2022/03/17 18:24:19;;;;;;;12.88;10.85;;;;;;;;;;12505285;28;20034;-76
2022/03/17 18:30:21;;;;;;;11.23;9.88;;;;;;;;;;12496268;28;20375;-76
2022/03/17 18:36:23;;;;;;;14.00;11.00;;;;;;;;;;12496968;28;20030;-76
2022/03/17 18:42:25;;;;;;;18.70;13.43;;;;;;;;;;12496766;28;20052;-76
2022/03/17 18:48:26;;;;;;;16.08;10.60;;;;;;;;;;12496637;28;20395;-76
2022/03/17 18:54:28;;;;;;;14.43;12.40;;;;;;;;;;12496777;28;20045;-76
2022/03/17 19:00:30;;;;;;;33.50;25.67;;;;;;;;;;12499851;28;20482;-77
2022/03/17 19:06:31;;;;;;;17.85;14.85;;;;;;;;;;12503276;28;20045;-78
2022/03/17 19:12:33;;;;;;;17.42;14.57;;;;;;;;;;12498215;28;20397;-78
2022/03/17 19:18:35;;;;;;;20.73;18.55;;;;;;;;;;12496901;28;20068;-77
2022/03/17 19:24:38;;;;;;;22.17;18.10;;;;;;;;;;12496280;28;20029;-78
2022/03/17 19:30:40;;;;;;;;;;;;;;;;;;12495798;28;20032;-79
2022/03/17 19:36:42;;;;;;;16.08;14.23;;;;;;;;;;12505298;28;20305;-78
2022/03/17 19:42:44;;;;;;;19.73;16.70;;;;;;;;;;12516833;28;20060;-81
2022/03/17 19:48:47;;;;;;;15.43;13.83;;;;;;;;;;12505593;28;20045;-83
2022/03/17 19:54:49;;;;;;;13.73;11.82;;;;;;;;;;12478823;28;20025;-80
2022/03/17 20:00:54;;;;;;;11.70;10.47;;;;;;;;;;12493420;28;20041;-77
2022/03/17 20:06:55;;;;;;;11.80;10.55;;;;;;;;;;12493664;28;20088;-77
2022/03/17 20:19:17;;;;;;;12.45;10.50;;;;;;;;;;12494901;28;20049;-82
2022/03/17 20:25:19;;;;;;;12.93;11.65;;;;;;;;;;12493628;28;20049;-78
2022/03/17 20:31:22;;;;;;;11.60;10.43;;;;;;;;;;12505503;28;20041;-79
2022/03/17 20:37:24;;;;;;;;;;;;;;;;;;12493296;28;20030;-79
2022/03/17 20:43:26;;;;;;;18.27;11.63;;;;;;;;;;12492744;28;19920;-78
2022/03/17 20:49:28;;;;;;;9.00;8.10;;;;;;;;;;12494023;28;20486;-77
2022/03/17 20:55:30;;;;;;;10.83;9.13;;;;;;;;;;12500964;28;20057;-76
2022/03/17 21:01:32;;;;;;;10.70;9.60;;;;;;;;;;12501578;28;20033;-75
2022/03/17 21:07:33;;;;;;;10.10;8.75;;;;;;;;;;12501338;28;20104;-76
2022/03/17 21:13:35;;;;;;;7.95;7.25;;;;;;;;;;12502404;28;20048;-78
2022/03/17 21:19:37;;;;;;;7.70;6.95;;;;;;;;;;12500697;28;20037;-81
2022/03/17 21:25:39;;;;;;;10.25;8.82;;;;;;;;;;12483734;28;20490;-80
2022/03/17 21:31:41;;;;;;;9.65;8.63;;;;;;;;;;12501486;28;20034;-79
2022/03/17 21:37:44;;;;;;;8.05;7.28;;;;;;;;;;12500720;28;20041;-79
2022/03/17 21:43:46;;;;;;;9.45;8.55;;;;;;;;;;12483705;28;20033;-77
2022/03/17 21:49:48;;;;;;;10.55;9.48;;;;;;;;;;12506237;28;20072;-78
2022/03/17 21:55:49;;;;;;;9.68;8.73;;;;;;;;;;12504336;28;20049;-78
2022/03/17 22:01:51;;;;;;;10.68;9.57;;;;;;;;;;12513020;28;20033;-80
2022/03/17 22:07:53;;;;;;;8.40;7.50;;;;;;;;;;12505783;28;20045;-79
2022/03/17 22:13:55;;;;;;;10.23;9.27;;;;;;;;;;12505154;28;20056;-79
2022/03/17 22:19:56;;;;;;;11.32;10.20;;;;;;;;;;12483287;28;20040;-79
2022/03/17 22:25:58;;;;;;;10.82;9.77;;;;;;;;;;12500535;28;20052;-79
2022/03/17 22:32:00;;;;;;;11.02;9.65;;;;;;;;;;12498757;28;20026;-80
2022/03/17 22:38:02;;;;;;;10.63;9.57;;;;;;;;;;12503683;28;20041;-80
2022/03/17 22:44:05;;;;;;;11.07;9.98;;;;;;;;;;12486661;28;20504;-80
2022/03/17 22:50:07;;;;;;;9.40;8.50;;;;;;;;;;12499901;28;20049;-80
2022/03/17 22:56:08;;;;;;;9.27;8.37;;;;;;;;;;12500064;28;20030;-79
2022/03/17 23:02:10;;;;;;;9.13;8.23;;;;;;;;;;12500179;28;20037;-80
2022/03/17 23:08:12;;;;;;;9.93;8.90;;;;;;;;;;12497628;28;20037;-79
2022/03/17 23:14:16;;;;;;;7.60;6.73;;;;;;;;;;12497039;28;20080;-80
2022/03/17 23:20:18;;;;;;;8.25;7.45;;;;;;;;;;12482777;28;20029;-80
2022/03/17 23:26:21;;;;;;;8.55;7.65;;;;;;;;;;12499699;28;20124;-81
2022/03/17 23:32:22;;;;;;;;;;;;;;;;;;12499909;28;20475;-80
2022/03/17 23:38:24;;;;;;;9.15;7.30;;;;;;;;;;12499795;28;19909;-80
2022/03/17 23:44:29;;;;;;;9.10;7.73;;;;;;;;;;12498345;28;20038;-80
2022/03/17 23:50:30;;;;;;;10.05;9.05;;;;;;;;;;12482295;28;20052;-79
2022/03/17 23:56:33;;;;;;;10.02;8.20;;;;;;;;;;12495745;28;20037;-79
